createdAt,value
2022-09-18T00:01:46.665Z,11.73
2022-09-18T00:06:37.391Z,11.71
2022-09-18T00:11:28.299Z,11.73
2022-09-18T00:16:18.483Z,11.71
2022-09-18T00:21:12.221Z,11.75
2022-09-18T00:26:01.666Z,11.71
2022-09-18T00:30:51.251Z,11.74
2022-09-18T00:35:44.168Z,11.75
2022-09-18T00:40:36.187Z,11.77
2022-09-18T00:45:25.859Z,11.76
2022-09-18T00:50:17.389Z,11.73
2022-09-18T00:55:08.904Z,11.74
2022-09-18T01:00:01.127Z,11.73
2022-09-18T01:04:51.303Z,11.75
2022-09-18T01:09:46.230Z,11.77
2022-09-18T01:14:39.416Z,11.78
2022-09-18T01:19:40.928Z,11.76
2022-09-18T01:24:37.251Z,11.78
2022-09-18T01:29:33.761Z,11.78
2022-09-18T01:34:26.671Z,11.78
2022-09-18T01:39:19.822Z,11.80
2022-09-18T01:44:12.169Z,11.81
2022-09-18T01:49:07.290Z,11.82
2022-09-18T01:54:03.627Z,11.82
2022-09-18T01:58:54.067Z,11.79
2022-09-18T02:03:47.949Z,11.82
2022-09-18T02:08:44.242Z,11.80
2022-09-18T02:13:37.311Z,11.78
2022-09-18T02:18:30.299Z,11.74
2022-09-18T02:23:20.858Z,11.72
2022-09-18T02:28:16.371Z,11.73
2022-09-18T02:33:08.893Z,11.73
2022-09-18T02:38:01.395Z,11.70
2022-09-18T02:42:55.462Z,11.73
2022-09-18T02:47:56.912Z,11.73
2022-09-18T02:52:53.624Z,11.74
2022-09-18T02:57:44.396Z,11.76
2022-09-18T03:02:35.496Z,11.76
2022-09-18T03:07:28.799Z,11.75
2022-09-18T03:12:20.303Z,11.76
2022-09-18T03:17:11.912Z,11.72
2022-09-18T03:22:01.463Z,11.70
2022-09-18T03:26:55.171Z,11.69
2022-09-18T03:31:47.471Z,11.68
2022-09-18T03:36:37.150Z,11.70
2022-09-18T03:41:26.987Z,11.70
2022-09-18T03:46:23.587Z,11.75
2022-09-18T03:51:17.067Z,11.77
2022-09-18T03:56:07.607Z,11.76
2022-09-18T04:01:16.885Z,11.78
2022-09-18T04:06:33.902Z,11.81
2022-09-18T04:11:52.363Z,11.84
2022-09-18T04:16:42.126Z,11.85
2022-09-18T04:21:34.598Z,11.85
2022-09-18T04:26:27.196Z,11.86
2022-09-18T04:31:20.493Z,11.88
2022-09-18T04:36:10.956Z,11.92
2022-09-18T04:41:03.525Z,11.91
2022-09-18T04:45:53.972Z,11.86
2022-09-18T04:50:43.516Z,11.80
2022-09-18T04:55:40.531Z,11.76
2022-09-18T05:00:36.156Z,11.74
2022-09-18T05:05:25.865Z,11.72
2022-09-18T05:10:15.432Z,11.69
2022-09-18T05:15:05.115Z,11.67
2022-09-18T05:19:57.489Z,11.66
2022-09-18T05:24:48.685Z,11.66
2022-09-18T05:29:38.440Z,11.65
2022-09-18T05:34:36.132Z,11.67
2022-09-18T05:39:28.249Z,11.68
2022-09-18T05:44:21.390Z,11.70
2022-09-18T05:49:12.013Z,11.71
2022-09-18T05:54:01.863Z,11.76
2022-09-18T05:59:07.537Z,11.75
2022-09-18T06:03:56.980Z,11.78
2022-09-18T06:08:47.138Z,11.78
2022-09-18T06:13:37.965Z,11.82
2022-09-18T06:18:30.558Z,11.87
2022-09-18T06:23:23.039Z,11.88
2022-09-18T06:28:20.227Z,11.93
2022-09-18T06:33:11.841Z,11.94
2022-09-18T06:38:05.757Z,11.96
2022-09-18T06:43:02.176Z,12.00
2022-09-18T06:48:17.782Z,12.06
2022-09-18T06:53:12.691Z,12.10
2022-09-18T06:58:12.455Z,12.19
2022-09-18T07:03:02.500Z,12.26
2022-09-18T07:08:16.995Z,12.36
2022-09-18T07:13:06.955Z,12.44
2022-09-18T07:18:05.173Z,12.50
2022-09-18T07:22:55.391Z,12.60
2022-09-18T07:27:55.765Z,12.66
2022-09-18T07:32:45.323Z,12.67
2022-09-18T07:37:39.070Z,12.61
2022-09-18T07:43:04.415Z,12.54
2022-09-18T07:47:54.740Z,12.54
2022-09-18T07:52:50.965Z,12.56
2022-09-18T07:57:41.435Z,12.64
2022-09-18T08:02:53.479Z,12.68
2022-09-18T08:08:06.193Z,12.70
2022-09-18T08:13:18.437Z,12.74
2022-09-18T08:18:34.336Z,12.77
2022-09-18T08:23:42.767Z,12.76
2022-09-18T08:28:42.718Z,12.83
2022-09-18T08:33:38.693Z,12.93
2022-09-18T08:38:29.518Z,13.00
2022-09-18T08:43:53.846Z,13.00
2022-09-18T08:48:54.012Z,12.92
2022-09-18T08:53:48.670Z,12.89
2022-09-18T08:59:17.821Z,12.91
2022-09-18T09:04:18.130Z,12.91
2022-09-18T09:09:21.163Z,12.94
2022-09-18T09:14:39.635Z,12.93
2022-09-18T09:19:38.137Z,12.98
2022-09-18T09:24:33.923Z,13.04
2022-09-18T09:29:31.572Z,13.13
2022-09-18T09:34:40.799Z,13.22
2022-09-18T09:40:01.406Z,13.35
2022-09-18T09:44:57.954Z,13.47
2022-09-18T09:49:57.797Z,13.59
2022-09-18T09:54:54.596Z,13.79
2022-09-18T09:59:51.752Z,14.01
2022-09-18T10:05:01.569Z,14.23
2022-09-18T10:09:56.809Z,14.39
2022-09-18T10:14:48.498Z,14.43
2022-09-18T10:19:41.133Z,14.35
2022-09-18T10:24:43.852Z,14.21
2022-09-18T10:29:35.884Z,14.06
2022-09-18T10:34:35.351Z,13.88
2022-09-18T10:39:31.535Z,13.65
2022-09-18T10:44:33.599Z,13.43
2022-09-18T10:49:32.418Z,13.17
2022-09-18T10:54:23.301Z,13.05
2022-09-18T10:59:39.962Z,12.97
2022-09-18T11:04:32.823Z,12.95
2022-09-18T11:09:29.357Z,12.95
2022-09-18T11:14:21.055Z,12.96
2022-09-18T11:19:30.621Z,12.94
2022-09-18T11:24:24.999Z,12.93
2022-09-18T11:29:22.299Z,12.88
2022-09-18T11:34:24.048Z,12.83
2022-09-18T11:39:24.656Z,12.78
2022-09-18T11:44:19.215Z,12.70
2022-09-18T11:49:13.895Z,12.64
2022-09-18T11:54:09.208Z,12.58
2022-09-18T11:59:07.618Z,12.54
2022-09-18T12:04:10.776Z,12.53
2022-09-18T12:09:03.319Z,12.52
2022-09-18T12:14:01.851Z,12.51
2022-09-18T12:19:04.936Z,12.48
2022-09-18T12:23:57.999Z,12.48
2022-09-18T12:28:57.536Z,12.47
2022-09-18T12:33:54.034Z,12.44
2022-09-18T12:38:54.228Z,12.40
2022-09-18T12:43:57.258Z,12.45
2022-09-18T12:48:54.653Z,12.42
2022-09-18T12:53:52.034Z,12.48
2022-09-18T12:59:03.630Z,12.51
2022-09-18T13:03:54.356Z,12.59
2022-09-18T13:08:47.396Z,12.61
2022-09-18T13:13:42.732Z,12.68
2022-09-18T13:18:36.115Z,12.73
2022-09-18T13:23:28.021Z,12.68
2022-09-18T13:28:20.431Z,12.64
2022-09-18T13:33:24.631Z,12.64
2022-09-18T13:38:20.292Z,12.63
2022-09-18T13:43:21.732Z,12.62
2022-09-18T13:48:19.200Z,12.55
2022-09-18T13:53:32.299Z,12.53
2022-09-18T13:58:36.997Z,12.47
2022-09-18T14:03:38.735Z,12.41
2022-09-18T14:08:43.436Z,12.33
2022-09-18T14:13:45.096Z,12.29
2022-09-18T14:18:36.511Z,12.22
2022-09-18T14:23:41.306Z,12.21
2022-09-18T14:28:34.287Z,12.22
2022-09-18T14:33:23.895Z,12.22
2022-09-18T14:38:20.623Z,12.24
2022-09-18T14:43:17.336Z,12.26
2022-09-18T14:48:24.274Z,12.27
2022-09-18T14:53:24.748Z,12.28
2022-09-18T14:58:17.602Z,12.35
2022-09-18T15:03:11.715Z,12.34
2022-09-18T15:08:03.889Z,12.35
2022-09-18T15:12:56.314Z,12.35
2022-09-18T15:17:54.876Z,12.33
2022-09-18T15:22:44.535Z,12.34
2022-09-18T15:27:35.793Z,12.32
2022-09-18T15:32:35.341Z,12.34
2022-09-18T15:37:30.358Z,12.33
2022-09-18T15:42:25.020Z,12.25
2022-09-18T15:47:35.511Z,12.21
2022-09-18T15:52:40.055Z,12.18
2022-09-18T15:57:29.390Z,12.19
2022-09-18T16:02:27.632Z,12.18
2022-09-18T16:07:23.222Z,12.22
2022-09-18T16:12:27.685Z,12.22
2022-09-18T16:17:36.471Z,12.19
2022-09-18T16:22:30.913Z,12.17
2022-09-18T16:27:22.186Z,12.15
2022-09-18T16:32:12.962Z,12.11
2022-09-18T16:37:06.190Z,12.06
2022-09-18T16:41:59.309Z,12.00
2022-09-18T16:46:51.174Z,11.94
2022-09-18T16:51:40.963Z,11.87
2022-09-18T16:56:31.868Z,11.81
2022-09-18T17:01:24.729Z,11.75
2022-09-18T17:06:18.248Z,11.62
2022-09-18T17:11:08.554Z,11.60
2022-09-18T17:16:26.121Z,11.54
2022-09-18T17:21:29.223Z,11.49
2022-09-18T17:26:21.377Z,11.46
2022-09-18T17:31:13.738Z,11.45
2022-09-18T17:36:04.832Z,11.43
2022-09-18T17:41:08.422Z,11.38
2022-09-18T17:45:58.881Z,11.35
2022-09-18T17:50:49.034Z,11.23
2022-09-18T17:55:41.125Z,11.20
2022-09-18T18:00:34.030Z,11.21
2022-09-18T18:05:24.783Z,11.23
2022-09-18T18:10:14.964Z,11.27
2022-09-18T18:15:05.330Z,11.27
2022-09-18T18:19:58.435Z,11.26
2022-09-18T18:24:51.255Z,11.20
2022-09-18T18:29:42.948Z,11.16
2022-09-18T18:34:33.040Z,11.14
2022-09-18T18:39:26.339Z,11.10
2022-09-18T18:44:16.435Z,11.05
2022-09-18T18:49:09.562Z,11.04
2022-09-18T18:54:01.393Z,11.03
2022-09-18T18:58:58.146Z,10.99
2022-09-18T19:03:53.174Z,10.97
2022-09-18T19:08:46.495Z,10.94
2022-09-18T19:13:44.997Z,10.92
2022-09-18T19:18:38.681Z,10.88
2022-09-18T19:23:28.729Z,10.86
2022-09-18T19:28:19.766Z,10.86
2022-09-18T19:33:09.643Z,10.82
2022-09-18T19:38:01.702Z,10.80
2022-09-18T19:42:55.622Z,10.81
2022-09-18T19:47:47.313Z,10.81
2022-09-18T19:52:37.077Z,10.76
2022-09-18T19:57:30.598Z,10.73
2022-09-18T20:02:20.128Z,10.68
2022-09-18T20:07:09.681Z,10.66
2022-09-18T20:11:59.197Z,10.63
2022-09-18T20:16:52.107Z,10.59
2022-09-18T20:21:42.081Z,10.60
2022-09-18T20:26:32.229Z,10.62
2022-09-18T20:31:25.128Z,10.66
2022-09-18T20:36:18.541Z,10.68
2022-09-18T20:41:11.719Z,10.67
2022-09-18T20:46:02.070Z,10.66
2022-09-18T20:50:52.310Z,10.65
2022-09-18T20:55:45.208Z,10.69
2022-09-18T21:00:34.661Z,10.67
2022-09-18T21:05:26.321Z,10.67
2022-09-18T21:10:16.596Z,10.66
2022-09-18T21:15:10.330Z,10.63
2022-09-18T21:20:02.482Z,10.59
2022-09-18T21:24:53.307Z,10.56
2022-09-18T21:29:43.976Z,10.52
2022-09-18T21:34:37.197Z,10.52
2022-09-18T21:39:28.352Z,10.47
2022-09-18T21:44:25.021Z,10.45
2022-09-18T21:49:17.811Z,10.39
2022-09-18T21:54:14.562Z,10.38
2022-09-18T21:59:05.504Z,10.37
2022-09-18T22:03:56.422Z,10.32
2022-09-18T22:08:50.351Z,10.32
2022-09-18T22:13:42.469Z,10.28
2022-09-18T22:18:32.537Z,10.33
2022-09-18T22:23:23.348Z,10.36
2022-09-18T22:28:18.047Z,10.38
2022-09-18T22:33:10.780Z,10.36
2022-09-18T22:38:00.948Z,10.35
2022-09-18T22:42:53.418Z,10.32
2022-09-18T22:47:43.508Z,10.34
2022-09-18T22:52:37.282Z,10.31
2022-09-18T22:57:29.360Z,10.28
2022-09-18T23:02:19.604Z,10.31
2022-09-18T23:07:10.730Z,10.37
2022-09-18T23:12:03.138Z,10.42
2022-09-18T23:16:52.616Z,10.52
2022-09-18T23:21:42.587Z,10.62
2022-09-18T23:26:33.310Z,10.68
2022-09-18T23:31:27.455Z,10.63
2022-09-18T23:36:21.383Z,10.56
2022-09-18T23:41:14.981Z,10.55
2022-09-18T23:46:05.647Z,10.51
2022-09-18T23:50:58.810Z,10.57
2022-09-18T23:55:50.470Z,10.69
